sensor_id;sensor_type;location;lat;lon;timestamp;pressure;altitude;pressure_sealevel;temperature
78669;BMP280;67984;45.118;20.724;2023-04-24T00:03:05;99891.97;;;14.13
78669;BMP280;67984;45.118;20.724;2023-04-24T00:13:07;99896.00;;;14.34
78669;BMP280;67984;45.118;20.724;2023-04-24T00:23:08;99910.00;;;14.47
78669;BMP280;67984;45.118;20.724;2023-04-24T00:33:08;99921.13;;;14.51
78669;BMP280;67984;45.118;20.724;2023-04-24T00:43:09;99905.03;;;14.33
78669;BMP280;67984;45.118;20.724;2023-04-24T00:53:10;99837.41;;;14.05
78669;BMP280;67984;45.118;20.724;2023-04-24T01:03:11;99826.84;;;14.08
78669;BMP280;67984;45.118;20.724;2023-04-24T01:13:11;99832.94;;;14.21
78669;BMP280;67984;45.118;20.724;2023-04-24T01:23:12;99838.84;;;14.25
78669;BMP280;67984;45.118;20.724;2023-04-24T01:33:13;99818.63;;;14.26
78669;BMP280;67984;45.118;20.724;2023-04-24T01:43:14;99808.91;;;14.23
78669;BMP280;67984;45.118;20.724;2023-04-24T01:53:14;99810.50;;;14.20
78669;BMP280;67984;45.118;20.724;2023-04-24T02:03:16;99785.78;;;14.18
78669;BMP280;67984;45.118;20.724;2023-04-24T02:13:16;99800.72;;;14.21
78669;BMP280;67984;45.118;20.724;2023-04-24T02:23:17;99780.72;;;14.27
78669;BMP280;67984;45.118;20.724;2023-04-24T02:33:19;99788.13;;;14.32
78669;BMP280;67984;45.118;20.724;2023-04-24T02:43:21;99818.03;;;14.34
78669;BMP280;67984;45.118;20.724;2023-04-24T02:53:21;99825.91;;;14.34
78669;BMP280;67984;45.118;20.724;2023-04-24T03:03:23;99820.75;;;14.31
78669;BMP280;67984;45.118;20.724;2023-04-24T03:13:24;99823.88;;;14.26
78669;BMP280;67984;45.118;20.724;2023-04-24T03:23:25;99828.63;;;14.15
78669;BMP280;67984;45.118;20.724;2023-04-24T03:33:26;99848.91;;;14.11
78669;BMP280;67984;45.118;20.724;2023-04-24T03:43:34;99836.56;;;13.92
78669;BMP280;67984;45.118;20.724;2023-04-24T03:53:36;99830.16;;;13.77
78669;BMP280;67984;45.118;20.724;2023-04-24T04:03:38;99814.88;;;13.72
78669;BMP280;67984;45.118;20.724;2023-04-24T04:13:39;99815.75;;;13.85
78669;BMP280;67984;45.118;20.724;2023-04-24T04:23:41;99829.72;;;13.98
78669;BMP280;67984;45.118;20.724;2023-04-24T04:33:48;99919.56;;;14.02
78669;BMP280;67984;45.118;20.724;2023-04-24T04:43:49;99953.28;;;14.04
78669;BMP280;67984;45.118;20.724;2023-04-24T04:53:51;99977.91;;;13.67
78669;BMP280;67984;45.118;20.724;2023-04-24T05:03:52;99949.31;;;13.53
78669;BMP280;67984;45.118;20.724;2023-04-24T05:13:53;99908.50;;;13.52
78669;BMP280;67984;45.118;20.724;2023-04-24T05:24:02;99928.34;;;13.53
78669;BMP280;67984;45.118;20.724;2023-04-24T05:34:29;100006.53;;;13.58
78669;BMP280;67984;45.118;20.724;2023-04-24T05:44:31;99944.19;;;13.47
78669;BMP280;67984;45.118;20.724;2023-04-24T05:54:33;99833.97;;;13.34
78669;BMP280;67984;45.118;20.724;2023-04-24T06:04:34;99731.03;;;13.34
78669;BMP280;67984;45.118;20.724;2023-04-24T06:14:36;99763.13;;;13.57
78669;BMP280;67984;45.118;20.724;2023-04-24T06:24:48;99762.69;;;13.43
78669;BMP280;67984;45.118;20.724;2023-04-24T06:34:51;99767.63;;;13.56
78669;BMP280;67984;45.118;20.724;2023-04-24T06:44:52;99782.41;;;13.66
78669;BMP280;67984;45.118;20.724;2023-04-24T06:55:00;99797.50;;;14.13
78669;BMP280;67984;45.118;20.724;2023-04-24T07:05:01;99803.75;;;14.51
78669;BMP280;67984;45.118;20.724;2023-04-24T07:15:03;99804.22;;;15.22
78669;BMP280;67984;45.118;20.724;2023-04-24T07:25:05;99820.81;;;15.72
78669;BMP280;67984;45.118;20.724;2023-04-24T07:35:06;99839.31;;;15.56
78669;BMP280;67984;45.118;20.724;2023-04-24T07:45:07;99852.84;;;15.55
78669;BMP280;67984;45.118;20.724;2023-04-24T07:55:08;99860.34;;;15.56
78669;BMP280;67984;45.118;20.724;2023-04-24T08:05:09;99866.84;;;15.52
78669;BMP280;67984;45.118;20.724;2023-04-24T08:15:10;99879.03;;;15.74
78669;BMP280;67984;45.118;20.724;2023-04-24T08:25:11;99875.47;;;16.05
78669;BMP280;67984;45.118;20.724;2023-04-24T08:35:11;99891.06;;;16.37
78669;BMP280;67984;45.118;20.724;2023-04-24T08:45:13;99901.38;;;16.44
78669;BMP280;67984;45.118;20.724;2023-04-24T08:55:13;99903.53;;;16.83
78669;BMP280;67984;45.118;20.724;2023-04-24T09:05:17;99903.53;;;16.83
78669;BMP280;67984;45.118;20.724;2023-04-24T09:15:21;99904.28;;;17.38
78669;BMP280;67984;45.118;20.724;2023-04-24T09:25:22;99912.88;;;17.30
78669;BMP280;67984;45.118;20.724;2023-04-24T09:35:23;99890.19;;;17.32
78669;BMP280;67984;45.118;20.724;2023-04-24T09:45:31;99888.16;;;17.57
78669;BMP280;67984;45.118;20.724;2023-04-24T09:55:39;99887.59;;;17.93
78669;BMP280;67984;45.118;20.724;2023-04-24T10:05:41;99893.44;;;18.27
78669;BMP280;67984;45.118;20.724;2023-04-24T10:15:44;99891.69;;;18.42
78669;BMP280;67984;45.118;20.724;2023-04-24T10:25:48;99887.00;;;18.37
78669;BMP280;67984;45.118;20.724;2023-04-24T10:35:50;99896.31;;;18.68
78669;BMP280;67984;45.118;20.724;2023-04-24T10:46:03;99901.91;;;18.70
78669;BMP280;67984;45.118;20.724;2023-04-24T10:56:06;99888.25;;;18.80
78669;BMP280;67984;45.118;20.724;2023-04-24T11:06:08;99861.19;;;18.50
78669;BMP280;67984;45.118;20.724;2023-04-24T11:16:21;99851.50;;;18.73
78669;BMP280;67984;45.118;20.724;2023-04-24T11:26:23;99841.97;;;18.49
78669;BMP280;67984;45.118;20.724;2023-04-24T11:36:34;99831.41;;;18.85
78669;BMP280;67984;45.118;20.724;2023-04-24T11:46:35;99803.50;;;18.48
78669;BMP280;67984;45.118;20.724;2023-04-24T11:56:38;99786.19;;;18.38
78669;BMP280;67984;45.118;20.724;2023-04-24T12:06:38;99764.28;;;18.11
78669;BMP280;67984;45.118;20.724;2023-04-24T12:16:39;99755.63;;;18.37
78669;BMP280;67984;45.118;20.724;2023-04-24T12:26:43;99746.38;;;18.42
78669;BMP280;67984;45.118;20.724;2023-04-24T12:36:44;99728.91;;;18.44
78669;BMP280;67984;45.118;20.724;2023-04-24T12:46:45;99725.66;;;18.67
78669;BMP280;67984;45.118;20.724;2023-04-24T12:56:47;99718.28;;;18.80
78669;BMP280;67984;45.118;20.724;2023-04-24T13:06:47;99709.38;;;18.42
78669;BMP280;67984;45.118;20.724;2023-04-24T13:16:49;99695.44;;;18.14
78669;BMP280;67984;45.118;20.724;2023-04-24T13:26:50;99685.44;;;17.92
78669;BMP280;67984;45.118;20.724;2023-04-24T13:36:53;99686.31;;;17.71
78669;BMP280;67984;45.118;20.724;2023-04-24T13:47:03;99666.09;;;17.68
78669;BMP280;67984;45.118;20.724;2023-04-24T13:57:13;99642.78;;;18.29
78669;BMP280;67984;45.118;20.724;2023-04-24T14:07:15;99622.75;;;18.63
78669;BMP280;67984;45.118;20.724;2023-04-24T14:17:15;99614.00;;;18.81
78669;BMP280;67984;45.118;20.724;2023-04-24T14:27:16;99608.56;;;19.07
78669;BMP280;67984;45.118;20.724;2023-04-24T14:37:36;99595.34;;;19.07
78669;BMP280;67984;45.118;20.724;2023-04-24T14:47:37;99580.56;;;18.69
78669;BMP280;67984;45.118;20.724;2023-04-24T14:57:38;99569.66;;;18.76
78669;BMP280;67984;45.118;20.724;2023-04-24T15:07:39;99556.34;;;19.17
78669;BMP280;67984;45.118;20.724;2023-04-24T15:17:42;99545.75;;;19.17
78669;BMP280;67984;45.118;20.724;2023-04-24T15:27:43;99520.28;;;18.82
78669;BMP280;67984;45.118;20.724;2023-04-24T15:37:44;99517.13;;;18.69
78669;BMP280;67984;45.118;20.724;2023-04-24T15:47:45;99518.06;;;18.57
78669;BMP280;67984;45.118;20.724;2023-04-24T15:57:48;99507.72;;;18.45
78669;BMP280;67984;45.118;20.724;2023-04-24T16:07:49;99515.66;;;18.36
78669;BMP280;67984;45.118;20.724;2023-04-24T16:17:51;99504.84;;;18.16
78669;BMP280;67984;45.118;20.724;2023-04-24T16:27:52;99501.81;;;18.08
78669;BMP280;67984;45.118;20.724;2023-04-24T16:37:52;99495.69;;;17.94
78669;BMP280;67984;45.118;20.724;2023-04-24T16:47:53;99485.78;;;17.62
78669;BMP280;67984;45.118;20.724;2023-04-24T16:57:54;99475.50;;;17.37
78669;BMP280;67984;45.118;20.724;2023-04-24T17:07:55;99481.22;;;17.09
78669;BMP280;67984;45.118;20.724;2023-04-24T17:17:56;99467.97;;;16.82
78669;BMP280;67984;45.118;20.724;2023-04-24T17:27:57;99450.97;;;16.56
78669;BMP280;67984;45.118;20.724;2023-04-24T17:37:58;99462.44;;;16.32
78669;BMP280;67984;45.118;20.724;2023-04-24T17:47:58;99469.91;;;16.12
78669;BMP280;67984;45.118;20.724;2023-04-24T17:58:00;99474.47;;;15.90
78669;BMP280;67984;45.118;20.724;2023-04-24T18:08:04;99480.09;;;15.80
78669;BMP280;67984;45.118;20.724;2023-04-24T18:18:05;99490.06;;;15.64
78669;BMP280;67984;45.118;20.724;2023-04-24T18:28:06;99495.97;;;15.55
78669;BMP280;67984;45.118;20.724;2023-04-24T18:38:07;99497.78;;;15.46
78669;BMP280;67984;45.118;20.724;2023-04-24T18:48:07;99492.13;;;15.35
78669;BMP280;67984;45.118;20.724;2023-04-24T18:58:08;99492.44;;;15.37
78669;BMP280;67984;45.118;20.724;2023-04-24T19:08:09;99489.22;;;15.33
78669;BMP280;67984;45.118;20.724;2023-04-24T19:18:10;99479.22;;;15.28
78669;BMP280;67984;45.118;20.724;2023-04-24T19:28:10;99478.59;;;15.24
78669;BMP280;67984;45.118;20.724;2023-04-24T19:38:11;99471.88;;;15.23
78669;BMP280;67984;45.118;20.724;2023-04-24T19:48:12;99467.16;;;15.18
78669;BMP280;67984;45.118;20.724;2023-04-24T19:58:13;99462.44;;;15.13
78669;BMP280;67984;45.118;20.724;2023-04-24T20:08:14;99460.34;;;15.08
78669;BMP280;67984;45.118;20.724;2023-04-24T20:18:14;99462.97;;;15.08
78669;BMP280;67984;45.118;20.724;2023-04-24T20:28:15;99461.50;;;15.07
78669;BMP280;67984;45.118;20.724;2023-04-24T20:38:16;99459.72;;;15.04
78669;BMP280;67984;45.118;20.724;2023-04-24T20:48:18;99462.34;;;15.04
78669;BMP280;67984;45.118;20.724;2023-04-24T20:58:18;99452.06;;;14.97
78669;BMP280;67984;45.118;20.724;2023-04-24T21:08:21;99452.41;;;14.99
78669;BMP280;67984;45.118;20.724;2023-04-24T21:18:22;99444.59;;;14.96
78669;BMP280;67984;45.118;20.724;2023-04-24T21:28:23;99441.25;;;14.95
78669;BMP280;67984;45.118;20.724;2023-04-24T21:38:24;99462.78;;;14.90
78669;BMP280;67984;45.118;20.724;2023-04-24T21:48:25;99459.88;;;14.88
78669;BMP280;67984;45.118;20.724;2023-04-24T21:58:26;99465.75;;;14.92
78669;BMP280;67984;45.118;20.724;2023-04-24T22:08:27;99458.19;;;14.94
78669;BMP280;67984;45.118;20.724;2023-04-24T22:18:28;99458.38;;;14.87
78669;BMP280;67984;45.118;20.724;2023-04-24T22:28:30;99464.19;;;14.82
78669;BMP280;67984;45.118;20.724;2023-04-24T22:38:31;99441.69;;;14.69
78669;BMP280;67984;45.118;20.724;2023-04-24T22:48:32;99439.38;;;14.46
78669;BMP280;67984;45.118;20.724;2023-04-24T22:58:34;99432.88;;;14.26
78669;BMP280;67984;45.118;20.724;2023-04-24T23:08:34;99419.84;;;14.22
78669;BMP280;67984;45.118;20.724;2023-04-24T23:18:35;99417.75;;;14.17
78669;BMP280;67984;45.118;20.724;2023-04-24T23:28:36;99418.28;;;14.25
78669;BMP280;67984;45.118;20.724;2023-04-24T23:38:38;99418.09;;;14.32
78669;BMP280;67984;45.118;20.724;2023-04-24T23:48:39;99404.22;;;14.31
78669;BMP280;67984;45.118;20.724;2023-04-24T23:58:40;99397.16;;;14.28
